createdAt,value
2023-01-30T00:02:01.139Z,0.90
2023-01-30T00:04:29.185Z,0.70
2023-01-30T00:06:57.191Z,0.90
2023-01-30T00:09:25.363Z,1.02
2023-01-30T00:11:53.336Z,0.80
2023-01-30T00:14:22.863Z,0.88
2023-01-30T00:16:50.824Z,0.75
2023-01-30T00:19:18.754Z,0.70
2023-01-30T00:21:46.721Z,0.60
2023-01-30T00:24:14.890Z,0.70
2023-01-30T00:26:42.889Z,0.80
2023-01-30T00:29:11.101Z,0.70
2023-01-30T00:31:40.515Z,0.73
2023-01-30T00:34:08.531Z,0.70
2023-01-30T00:36:36.458Z,0.65
2023-01-30T00:39:04.737Z,0.60
2023-01-30T00:41:47.703Z,0.52
2023-01-30T00:44:34.135Z,0.52
2023-01-30T00:47:09.763Z,0.60
2023-01-30T00:49:38.698Z,0.52
2023-01-30T00:52:07.512Z,0.30
2023-01-30T00:54:35.747Z,0.40
2023-01-30T00:57:03.718Z,0.40
2023-01-30T00:59:32.610Z,0.50
2023-01-30T01:02:00.687Z,0.60
2023-01-30T01:04:30.343Z,0.30
2023-01-30T01:06:58.330Z,0.77
2023-01-30T01:09:26.545Z,0.40
2023-01-30T01:11:54.517Z,0.60
2023-01-30T01:14:22.439Z,0.43
2023-01-30T01:16:50.518Z,0.40
2023-01-30T01:19:18.645Z,0.40
2023-01-30T01:21:47.982Z,0.50
2023-01-30T01:24:17.144Z,0.40
2023-01-30T01:26:46.050Z,0.43
2023-01-30T01:29:15.234Z,0.60
2023-01-30T01:31:43.802Z,0.45
2023-01-30T01:34:11.981Z,0.40
2023-01-30T01:36:55.594Z,0.30
2023-01-30T01:39:45.254Z,0.40
2023-01-30T01:42:12.987Z,0.60
2023-01-30T01:45:01.721Z,0.60
2023-01-30T01:47:30.321Z,0.60
2023-01-30T01:49:58.341Z,0.30
2023-01-30T01:52:26.602Z,0.43
2023-01-30T01:55:00.816Z,0.40
2023-01-30T01:57:36.136Z,0.50
2023-01-30T02:00:11.445Z,0.45
2023-01-30T02:02:44.955Z,0.40
2023-01-30T02:05:14.093Z,0.30
2023-01-30T02:07:46.991Z,0.30
2023-01-30T02:10:21.483Z,0.50
2023-01-30T02:12:49.996Z,0.35
2023-01-30T02:15:18.788Z,0.30
2023-01-30T02:17:47.152Z,0.30
2023-01-30T02:20:24.656Z,0.20
2023-01-30T02:23:23.765Z,0.30
2023-01-30T02:26:24.274Z,0.20
2023-01-30T02:29:19.651Z,0.25
2023-01-30T02:31:55.315Z,0.28
2023-01-30T02:34:36.705Z,0.20
2023-01-30T02:37:18.758Z,0.38
2023-01-30T02:40:01.996Z,0.40
2023-01-30T02:42:38.413Z,0.30
2023-01-30T02:45:13.433Z,0.30
2023-01-30T02:47:48.406Z,0.20
2023-01-30T02:50:21.548Z,0.40
2023-01-30T02:52:49.926Z,0.30
2023-01-30T02:55:21.892Z,0.35
2023-01-30T02:57:50.153Z,0.30
2023-01-30T03:00:23.723Z,0.30
2023-01-30T03:03:19.379Z,0.57
2023-01-30T03:06:01.331Z,0.45
2023-01-30T03:08:35.836Z,0.55
2023-01-30T03:11:07.349Z,0.40
2023-01-30T03:13:46.514Z,0.20
2023-01-30T03:16:19.825Z,0.50
2023-01-30T03:18:50.411Z,0.40
2023-01-30T03:21:19.049Z,0.32
2023-01-30T03:23:47.855Z,0.40
2023-01-30T03:26:21.193Z,0.50
2023-01-30T03:28:51.810Z,0.40
2023-01-30T03:31:21.189Z,0.73
2023-01-30T03:33:50.949Z,0.70
2023-01-30T03:36:19.073Z,0.60
2023-01-30T03:38:47.130Z,0.80
2023-01-30T03:41:15.169Z,0.55
2023-01-30T03:43:43.127Z,0.77
2023-01-30T03:46:11.199Z,0.80
2023-01-30T03:48:40.158Z,0.68
2023-01-30T03:51:09.904Z,0.43
2023-01-30T03:53:38.342Z,0.70
2023-01-30T03:56:07.082Z,0.50
2023-01-30T03:58:37.104Z,0.57
2023-01-30T04:01:17.098Z,0.73
2023-01-30T04:03:45.319Z,0.80
2023-01-30T04:06:14.923Z,0.80
2023-01-30T04:08:43.586Z,0.80
2023-01-30T04:11:20.788Z,1.00
2023-01-30T04:13:49.015Z,1.00
2023-01-30T04:16:19.497Z,0.65
2023-01-30T04:19:05.967Z,0.60
2023-01-30T04:21:36.188Z,0.63
2023-01-30T04:24:04.317Z,0.80
2023-01-30T04:26:32.409Z,0.80
2023-01-30T04:29:00.542Z,0.63
2023-01-30T04:31:29.891Z,1.00
2023-01-30T04:34:07.428Z,0.80
2023-01-30T04:36:37.986Z,0.80
2023-01-30T04:39:06.022Z,0.80
2023-01-30T04:41:34.347Z,0.90
2023-01-30T04:44:04.163Z,1.15
2023-01-30T04:46:44.264Z,1.00
2023-01-30T04:49:13.882Z,0.80
2023-01-30T04:51:43.360Z,1.25
2023-01-30T04:54:11.305Z,0.80
2023-01-30T04:56:39.557Z,1.15
2023-01-30T04:59:08.085Z,0.93
2023-01-30T05:01:41.440Z,0.90
2023-01-30T05:04:09.809Z,0.90
2023-01-30T05:06:37.964Z,0.88
2023-01-30T05:09:08.045Z,1.20
2023-01-30T05:11:36.362Z,0.88
2023-01-30T05:14:04.637Z,1.08
2023-01-30T05:16:32.608Z,0.80
2023-01-30T05:19:00.682Z,0.80
2023-01-30T05:21:29.589Z,0.85
2023-01-30T05:23:58.831Z,0.95
2023-01-30T05:26:28.154Z,1.00
2023-01-30T05:28:57.984Z,0.80
2023-01-30T05:31:26.044Z,0.75
2023-01-30T05:33:54.346Z,0.95
2023-01-30T05:36:24.064Z,0.80
2023-01-30T05:38:52.002Z,0.88
2023-01-30T05:41:20.195Z,1.00
2023-01-30T05:43:51.941Z,0.90
2023-01-30T05:46:20.583Z,1.00
2023-01-30T05:48:48.772Z,0.75
2023-01-30T05:51:19.306Z,1.00
2023-01-30T05:53:47.582Z,1.20
2023-01-30T05:56:16.129Z,1.20
2023-01-30T05:58:44.603Z,1.27
2023-01-30T06:01:14.273Z,0.80
2023-01-30T06:03:42.296Z,0.95
2023-01-30T06:06:12.643Z,0.90
2023-01-30T06:08:40.597Z,1.13
2023-01-30T06:11:11.138Z,0.88
2023-01-30T06:13:39.621Z,1.00
2023-01-30T06:16:08.569Z,1.02
2023-01-30T06:18:38.002Z,0.85
2023-01-30T06:21:06.609Z,1.08
2023-01-30T06:23:35.114Z,0.80
2023-01-30T06:26:04.933Z,0.98
2023-01-30T06:28:33.924Z,0.80
2023-01-30T06:31:02.293Z,0.90
2023-01-30T06:33:30.298Z,0.90
2023-01-30T06:35:59.707Z,0.90
2023-01-30T06:38:27.787Z,0.85
2023-01-30T06:40:55.899Z,0.70
2023-01-30T06:43:23.868Z,0.73
2023-01-30T06:45:51.899Z,1.02
2023-01-30T06:48:20.990Z,1.05
2023-01-30T06:50:49.038Z,0.82
2023-01-30T06:53:18.442Z,0.80
2023-01-30T06:55:46.484Z,0.88
2023-01-30T06:58:15.845Z,0.80
2023-01-30T07:00:44.309Z,0.82
2023-01-30T07:03:12.962Z,0.70
2023-01-30T07:05:41.010Z,0.88
2023-01-30T07:08:09.229Z,0.90
2023-01-30T07:10:39.296Z,0.90
2023-01-30T07:13:07.227Z,0.82
2023-01-30T07:15:35.411Z,1.10
2023-01-30T07:18:03.510Z,0.82
2023-01-30T07:20:32.218Z,0.88
2023-01-30T07:23:00.359Z,0.85
2023-01-30T07:25:29.643Z,0.70
2023-01-30T07:28:00.658Z,0.90
2023-01-30T07:30:30.244Z,1.08
2023-01-30T07:32:59.512Z,1.30
2023-01-30T07:35:29.184Z,1.30
2023-01-30T07:37:57.119Z,2.10
2023-01-30T07:40:25.596Z,2.42
2023-01-30T07:42:59.437Z,2.30
2023-01-30T07:45:31.056Z,1.77
2023-01-30T07:47:59.172Z,1.30
2023-01-30T07:50:27.137Z,1.55
2023-01-30T07:52:55.237Z,2.85
2023-01-30T07:55:23.303Z,1.55
2023-01-30T07:57:51.379Z,2.20
2023-01-30T08:00:21.481Z,2.38
2023-01-30T08:02:49.698Z,1.92
2023-01-30T08:05:17.955Z,1.33
2023-01-30T08:07:47.447Z,1.65
2023-01-30T08:10:16.812Z,1.55
2023-01-30T08:12:45.008Z,1.60
2023-01-30T08:15:13.076Z,1.73
2023-01-30T08:17:42.468Z,1.58
2023-01-30T08:20:12.108Z,1.50
2023-01-30T08:22:40.054Z,1.15
2023-01-30T08:25:09.076Z,1.20
2023-01-30T08:27:36.935Z,1.00
2023-01-30T08:30:05.636Z,0.75
2023-01-30T08:32:34.113Z,1.10
2023-01-30T08:35:03.591Z,1.17
2023-01-30T08:37:31.853Z,0.95
2023-01-30T08:39:59.957Z,0.88
2023-01-30T08:42:28.027Z,0.70
2023-01-30T08:44:56.006Z,1.10
2023-01-30T08:47:24.023Z,0.85
2023-01-30T08:49:53.067Z,0.60
2023-01-30T08:52:22.486Z,0.90
2023-01-30T08:54:50.465Z,0.88
2023-01-30T08:57:18.433Z,0.82
2023-01-30T08:59:46.502Z,1.33
2023-01-30T09:02:14.729Z,0.80
2023-01-30T09:04:42.694Z,0.82
2023-01-30T09:07:10.785Z,1.33
2023-01-30T09:09:40.117Z,0.63
2023-01-30T09:12:08.249Z,1.42
2023-01-30T09:14:36.317Z,1.55
2023-01-30T09:17:04.296Z,1.15
2023-01-30T09:19:32.322Z,1.42
2023-01-30T09:22:00.325Z,1.38
2023-01-30T09:24:28.340Z,1.83
2023-01-30T09:26:59.155Z,1.33
2023-01-30T09:29:27.915Z,1.10
2023-01-30T09:31:57.205Z,1.40
2023-01-30T09:34:28.482Z,0.70
2023-01-30T09:36:56.762Z,0.73
2023-01-30T09:39:24.679Z,1.10
2023-01-30T09:42:16.988Z,0.60
2023-01-30T09:45:04.281Z,1.23
2023-01-30T09:47:40.905Z,0.60
2023-01-30T09:50:24.912Z,0.90
2023-01-30T09:52:59.476Z,0.70
2023-01-30T09:55:29.756Z,0.95
2023-01-30T09:58:01.001Z,0.90
2023-01-30T10:00:35.442Z,1.02
2023-01-30T10:03:11.884Z,1.25
2023-01-30T10:05:46.233Z,1.20
2023-01-30T10:08:29.009Z,1.65
2023-01-30T10:11:10.051Z,1.23
2023-01-30T10:14:06.127Z,0.50
2023-01-30T10:16:40.234Z,1.13
2023-01-30T10:19:34.773Z,0.60
2023-01-30T10:22:18.460Z,0.88
2023-01-30T10:24:58.755Z,0.50
2023-01-30T10:27:30.201Z,0.80
2023-01-30T10:30:02.772Z,1.25
2023-01-30T10:32:34.461Z,0.65
2023-01-30T10:35:07.993Z,0.77
2023-01-30T10:37:44.198Z,0.80
2023-01-30T10:40:21.723Z,1.15
2023-01-30T10:42:58.282Z,1.13
2023-01-30T10:45:36.528Z,1.20
2023-01-30T10:48:42.445Z,0.98
2023-01-30T10:51:22.558Z,0.93
2023-01-30T10:53:57.623Z,0.90
2023-01-30T10:56:36.415Z,0.95
2023-01-30T10:59:17.010Z,1.10
2023-01-30T11:01:57.784Z,0.60
2023-01-30T11:04:31.344Z,0.47
2023-01-30T11:07:02.539Z,0.90
2023-01-30T11:09:41.752Z,0.70
2023-01-30T11:12:09.996Z,0.90
2023-01-30T11:14:59.112Z,0.50
2023-01-30T11:17:35.960Z,0.40
2023-01-30T11:20:11.883Z,0.50
2023-01-30T11:22:48.395Z,0.60
2023-01-30T11:25:19.735Z,0.60
2023-01-30T11:27:54.976Z,0.70
2023-01-30T11:30:28.518Z,0.75
2023-01-30T11:33:09.302Z,0.73
2023-01-30T11:35:44.321Z,0.60
2023-01-30T11:38:21.236Z,0.60
2023-01-30T11:40:49.487Z,0.60
2023-01-30T11:43:17.401Z,0.68
2023-01-30T11:45:48.506Z,0.60
2023-01-30T11:48:33.391Z,0.52
2023-01-30T11:51:12.019Z,0.50
2023-01-30T11:53:42.896Z,0.50
2023-01-30T11:56:17.210Z,0.40
2023-01-30T11:58:50.023Z,0.52
2023-01-30T12:01:18.330Z,0.38
2023-01-30T12:03:50.819Z,0.60
2023-01-30T12:06:23.657Z,0.40
2023-01-30T12:08:53.832Z,0.50
2023-01-30T12:11:44.878Z,0.40
2023-01-30T12:14:39.841Z,0.80
2023-01-30T12:17:18.949Z,0.57
2023-01-30T12:19:57.862Z,0.50
2023-01-30T12:22:34.663Z,0.30
2023-01-30T12:25:04.821Z,0.70
2023-01-30T12:27:47.207Z,0.50
2023-01-30T12:30:24.607Z,0.50
2023-01-30T12:32:56.613Z,0.50
2023-01-30T12:35:33.477Z,0.60
2023-01-30T12:38:10.697Z,0.50
2023-01-30T12:40:47.873Z,0.63
2023-01-30T12:43:29.601Z,0.50
2023-01-30T12:46:09.498Z,0.40
2023-01-30T12:49:11.623Z,0.50
2023-01-30T12:52:05.149Z,0.40
2023-01-30T12:54:46.624Z,0.40
2023-01-30T12:57:23.984Z,1.90
2023-01-30T13:00:05.195Z,0.90
2023-01-30T13:02:53.425Z,0.77
2023-01-30T13:05:34.042Z,1.02
2023-01-30T13:08:18.659Z,1.35
2023-01-30T13:10:52.852Z,0.82
2023-01-30T13:13:27.242Z,0.70
2023-01-30T13:16:02.114Z,1.13
2023-01-30T13:18:35.674Z,0.77
2023-01-30T13:21:11.709Z,0.63
2023-01-30T13:23:52.546Z,0.82
2023-01-30T13:26:25.630Z,0.55
2023-01-30T13:28:58.088Z,1.35
2023-01-30T13:31:30.989Z,2.40
2023-01-30T13:34:06.541Z,2.20
2023-01-30T13:36:41.722Z,1.83
2023-01-30T13:41:56.731Z,0.90
2023-01-30T13:44:30.827Z,1.90
2023-01-30T13:47:04.601Z,4.15
2023-01-30T13:49:43.833Z,2.30
2023-01-30T13:52:19.130Z,2.00
2023-01-30T13:54:57.820Z,1.38
2023-01-30T13:57:34.999Z,1.02
2023-01-30T14:00:28.172Z,1.02
2023-01-30T14:03:30.419Z,0.80
2023-01-30T14:06:32.870Z,0.43
2023-01-30T14:09:04.837Z,0.80
2023-01-30T14:11:44.227Z,1.13
2023-01-30T14:14:25.853Z,0.77
2023-01-30T14:16:55.977Z,1.00
2023-01-30T14:19:37.304Z,0.60
2023-01-30T14:22:19.784Z,1.20
2023-01-30T14:25:46.586Z,0.50
2023-01-30T14:28:47.348Z,0.47
2023-01-30T14:31:54.193Z,0.75
2023-01-30T14:35:07.820Z,0.52
2023-01-30T14:38:17.641Z,0.75
2023-01-30T14:41:26.691Z,0.55
2023-01-30T14:43:56.263Z,0.88
2023-01-30T14:46:55.031Z,0.93
2023-01-30T14:49:34.212Z,0.63
2023-01-30T14:52:04.122Z,0.52
2023-01-30T14:54:42.660Z,0.32
2023-01-30T14:57:32.763Z,0.40
2023-01-30T15:00:18.173Z,1.20
2023-01-30T15:02:52.932Z,0.57
2023-01-30T15:05:28.355Z,0.60
2023-01-30T15:08:03.341Z,0.50
2023-01-30T15:10:51.344Z,0.82
2023-01-30T15:13:33.577Z,0.35
2023-01-30T15:16:16.099Z,0.50
2023-01-30T15:19:10.196Z,0.40
2023-01-30T15:22:02.886Z,0.45
2023-01-30T15:25:07.228Z,0.60
2023-01-30T15:27:44.451Z,0.60
2023-01-30T15:30:22.920Z,0.60
2023-01-30T15:33:10.391Z,0.70
2023-01-30T15:35:38.343Z,0.60
2023-01-30T15:38:06.537Z,0.38
2023-01-30T15:40:34.933Z,0.50
2023-01-30T15:43:18.066Z,0.30
2023-01-30T15:46:02.187Z,0.30
2023-01-30T15:48:44.438Z,0.30
2023-01-30T15:51:14.866Z,0.38
2023-01-30T15:53:45.883Z,0.38
2023-01-30T15:56:24.485Z,0.45
2023-01-30T15:58:52.999Z,0.57
2023-01-30T16:01:22.759Z,0.47
2023-01-30T16:03:53.409Z,0.28
2023-01-30T16:06:30.448Z,0.20
2023-01-30T16:09:01.645Z,0.25
2023-01-30T16:11:37.687Z,0.52
2023-01-30T16:14:06.782Z,0.43
2023-01-30T16:16:36.452Z,0.57
2023-01-30T16:19:09.102Z,0.50
2023-01-30T16:21:40.948Z,0.40
2023-01-30T16:24:16.438Z,0.60
2023-01-30T16:26:47.591Z,0.43
2023-01-30T16:29:18.388Z,0.43
2023-01-30T16:31:56.522Z,0.40
2023-01-30T16:34:34.876Z,0.40
2023-01-30T16:37:07.790Z,0.50
2023-01-30T16:39:37.113Z,0.82
2023-01-30T16:42:21.852Z,0.75
2023-01-30T16:44:49.865Z,1.02
2023-01-30T16:47:28.421Z,1.08
2023-01-30T16:49:57.799Z,0.70
2023-01-30T16:52:29.445Z,0.73
2023-01-30T16:55:00.672Z,0.52
2023-01-30T16:57:36.202Z,0.50
2023-01-30T17:00:20.854Z,0.57
2023-01-30T17:02:52.690Z,0.50
2023-01-30T17:05:23.396Z,0.20
2023-01-30T17:07:52.965Z,0.60
2023-01-30T17:10:52.420Z,0.30
2023-01-30T17:13:42.070Z,0.50
2023-01-30T17:16:26.976Z,0.40
2023-01-30T17:18:58.329Z,0.65
2023-01-30T17:21:29.152Z,0.40
2023-01-30T17:24:00.516Z,0.43
2023-01-30T17:26:29.182Z,0.43
2023-01-30T17:28:57.255Z,0.40
2023-01-30T17:31:25.517Z,0.57
2023-01-30T17:33:53.522Z,0.50
2023-01-30T17:36:27.020Z,0.65
2023-01-30T17:38:55.259Z,0.30
2023-01-30T17:41:24.793Z,0.50
2023-01-30T17:43:52.750Z,0.40
2023-01-30T17:46:24.578Z,0.50
2023-01-30T17:48:52.790Z,0.57
2023-01-30T17:51:22.149Z,0.40
2023-01-30T17:53:50.094Z,0.50
2023-01-30T17:56:23.133Z,0.50
2023-01-30T17:58:51.401Z,0.80
2023-01-30T18:01:19.400Z,0.45
2023-01-30T18:03:47.557Z,0.52
2023-01-30T18:06:17.233Z,0.40
2023-01-30T18:08:46.756Z,0.30
2023-01-30T18:11:15.942Z,0.50
2023-01-30T18:13:47.081Z,0.40
2023-01-30T18:16:25.252Z,0.57
2023-01-30T18:18:53.819Z,0.50
2023-01-30T18:21:22.624Z,0.25
2023-01-30T18:23:52.251Z,0.50
2023-01-30T18:26:20.466Z,0.30
2023-01-30T18:28:48.611Z,0.40
2023-01-30T18:31:16.840Z,0.47
2023-01-30T18:33:45.689Z,0.38
2023-01-30T18:36:15.561Z,0.30
2023-01-30T18:38:43.943Z,0.40
2023-01-30T18:41:15.114Z,0.40
2023-01-30T18:43:43.619Z,0.40
2023-01-30T18:46:14.448Z,0.40
2023-01-30T18:48:43.423Z,0.45
2023-01-30T18:51:13.169Z,0.50
2023-01-30T18:53:42.137Z,0.70
2023-01-30T18:56:11.719Z,0.40
2023-01-30T18:58:41.089Z,0.70
2023-01-30T19:01:17.574Z,0.50
2023-01-30T19:03:45.830Z,0.43
2023-01-30T19:06:15.673Z,0.47
2023-01-30T19:08:43.603Z,0.40
2023-01-30T19:11:26.978Z,0.40
2023-01-30T19:13:56.776Z,0.82
2023-01-30T19:16:26.606Z,0.70
2023-01-30T19:18:54.735Z,0.47
2023-01-30T19:21:23.476Z,0.47
2023-01-30T19:23:52.002Z,0.57
2023-01-30T19:26:21.404Z,1.15
2023-01-30T19:28:49.594Z,0.40
2023-01-30T19:31:21.349Z,0.30
2023-01-30T19:33:55.738Z,0.30
2023-01-30T19:36:25.687Z,0.50
2023-01-30T19:38:53.856Z,0.40
2023-01-30T19:41:24.448Z,0.40
2023-01-30T19:43:53.676Z,0.50
2023-01-30T19:46:24.036Z,2.25
2023-01-30T19:48:52.368Z,0.55
2023-01-30T19:51:22.398Z,0.43
2023-01-30T19:53:53.590Z,0.30
2023-01-30T19:56:22.566Z,0.73
2023-01-30T19:58:51.575Z,0.50
2023-01-30T20:01:22.550Z,0.50
2023-01-30T20:03:50.623Z,0.32
2023-01-30T20:06:20.820Z,0.57
2023-01-30T20:08:50.757Z,0.40
2023-01-30T20:11:21.816Z,0.38
2023-01-30T20:13:50.386Z,0.50
2023-01-30T20:16:20.800Z,0.50
2023-01-30T20:18:55.614Z,0.35
2023-01-30T20:21:23.960Z,0.60
2023-01-30T20:23:52.798Z,0.57
2023-01-30T20:26:22.923Z,0.50
2023-01-30T20:28:51.348Z,0.50
2023-01-30T20:31:21.668Z,0.50
2023-01-30T20:33:51.188Z,0.43
2023-01-30T20:36:20.965Z,0.52
2023-01-30T20:38:50.190Z,0.40
2023-01-30T20:41:20.538Z,0.50
2023-01-30T20:43:51.031Z,0.70
2023-01-30T20:46:21.636Z,0.55
2023-01-30T20:48:54.560Z,0.28
2023-01-30T20:51:25.160Z,0.50
2023-01-30T20:53:54.977Z,0.25
2023-01-30T20:56:24.941Z,0.50
2023-01-30T20:58:53.396Z,0.45
2023-01-30T21:01:23.353Z,0.40
2023-01-30T21:03:54.830Z,0.43
2023-01-30T21:06:37.183Z,0.47
2023-01-30T21:09:13.594Z,0.30
2023-01-30T21:11:41.764Z,0.60
2023-01-30T21:14:09.701Z,0.40
2023-01-30T21:16:38.400Z,0.40
2023-01-30T21:19:09.749Z,0.40
2023-01-30T21:21:42.999Z,0.43
2023-01-30T21:24:14.127Z,1.08
2023-01-30T21:26:46.187Z,0.60
2023-01-30T21:29:16.152Z,0.43
2023-01-30T21:31:45.380Z,0.60
2023-01-30T21:34:15.372Z,0.32
2023-01-30T21:36:43.300Z,0.32
2023-01-30T21:39:32.099Z,0.38
2023-01-30T21:42:17.171Z,0.60
2023-01-30T21:44:45.137Z,0.60
2023-01-30T21:47:13.134Z,0.40
2023-01-30T21:49:43.995Z,0.50
2023-01-30T21:52:12.092Z,0.40
2023-01-30T21:54:40.135Z,0.98
2023-01-30T21:57:08.072Z,0.40
2023-01-30T21:59:36.526Z,0.45
2023-01-30T22:02:04.628Z,0.43
2023-01-30T22:04:36.560Z,0.50
2023-01-30T22:07:07.023Z,0.50
2023-01-30T22:09:35.176Z,0.40
2023-01-30T22:12:03.347Z,0.50
2023-01-30T22:14:33.232Z,0.40
2023-01-30T22:17:01.360Z,0.60
2023-01-30T22:19:35.474Z,0.70
2023-01-30T22:22:05.458Z,0.57
2023-01-30T22:24:33.367Z,0.60
2023-01-30T22:27:01.322Z,0.60
2023-01-30T22:29:29.389Z,0.75
2023-01-30T22:31:57.451Z,0.80
2023-01-30T22:34:25.457Z,0.40
2023-01-30T22:36:53.626Z,0.52
2023-01-30T22:39:23.036Z,0.60
2023-01-30T22:41:51.602Z,0.60
2023-01-30T22:44:19.567Z,0.50
2023-01-30T22:46:47.571Z,0.70
2023-01-30T22:49:15.588Z,0.55
2023-01-30T22:51:44.270Z,0.50
2023-01-30T22:54:15.731Z,0.60
2023-01-30T22:56:46.960Z,0.50
2023-01-30T22:59:15.788Z,0.43
2023-01-30T23:01:45.834Z,0.60
2023-01-30T23:04:15.617Z,0.55
2023-01-30T23:06:44.168Z,0.60
2023-01-30T23:09:15.055Z,0.60
2023-01-30T23:12:08.969Z,0.40
2023-01-30T23:14:38.005Z,0.40
2023-01-30T23:17:26.504Z,0.95
2023-01-30T23:19:53.730Z,0.60
2023-01-30T23:22:21.741Z,0.30
2023-01-30T23:24:51.230Z,0.50
2023-01-30T23:27:21.129Z,0.40
2023-01-30T23:29:49.387Z,0.55
2023-01-30T23:32:19.853Z,0.52
2023-01-30T23:34:47.883Z,0.43
2023-01-30T23:37:16.281Z,0.47
2023-01-30T23:39:44.659Z,0.65
2023-01-30T23:42:12.642Z,0.57
2023-01-30T23:44:41.959Z,0.68
2023-01-30T23:47:09.951Z,0.55
2023-01-30T23:49:38.025Z,0.60
2023-01-30T23:52:06.205Z,0.68
2023-01-30T23:54:34.188Z,0.60
2023-01-30T23:57:02.194Z,0.60
2023-01-30T23:59:30.237Z,0.60
